createdAt,value
2019-06-15T00:02:18.862Z,59.94
2019-06-15T00:07:22.974Z,60.37
2019-06-15T00:12:27.383Z,60.96
2019-06-15T00:17:31.456Z,60.71
2019-06-15T00:22:35.526Z,60.95
2019-06-15T00:27:39.892Z,61.26
2019-06-15T00:32:44.026Z,61.75
2019-06-15T00:37:48.090Z,62.26
2019-06-15T00:42:54.125Z,63.15
2019-06-15T00:48:00.654Z,63.84
2019-06-15T00:53:05.522Z,64.81
2019-06-15T00:58:10.631Z,66.08
2019-06-15T01:03:15.487Z,66.74
2019-06-15T01:08:19.710Z,67.52
2019-06-15T01:13:24.443Z,67.60
2019-06-15T01:18:30.688Z,68.28
2019-06-15T01:23:34.855Z,68.31
2019-06-15T01:28:39.427Z,68.55
2019-06-15T01:33:43.593Z,68.75
2019-06-15T01:38:47.638Z,69.27
2019-06-15T01:43:51.707Z,69.09
2019-06-15T01:48:55.783Z,69.57
2019-06-15T01:54:00.750Z,70.02
2019-06-15T01:59:04.946Z,69.79
2019-06-15T02:04:10.060Z,69.66
2019-06-15T02:09:14.209Z,70.08
2019-06-15T02:14:18.250Z,70.13
2019-06-15T02:19:22.246Z,70.44
2019-06-15T02:24:26.625Z,70.84
2019-06-15T02:29:30.958Z,70.33
2019-06-15T02:34:34.961Z,70.85
2019-06-15T02:39:39.346Z,70.44
2019-06-15T02:44:43.763Z,69.86
2019-06-15T02:49:48.139Z,70.18
2019-06-15T02:54:52.426Z,70.80
2019-06-15T02:59:56.558Z,71.01
2019-06-15T03:05:00.617Z,71.48
2019-06-15T03:10:04.913Z,72.70
2019-06-15T03:15:10.612Z,73.96
2019-06-15T03:20:15.663Z,73.85
2019-06-15T03:25:19.874Z,74.85
2019-06-15T03:30:24.286Z,76.05
2019-06-15T03:35:29.455Z,77.35
2019-06-15T03:40:33.482Z,78.92
2019-06-15T03:45:37.603Z,80.31
2019-06-15T03:50:41.722Z,81.29
2019-06-15T03:55:46.066Z,81.44
2019-06-15T04:01:19.465Z,81.40
2019-06-15T04:06:23.494Z,80.77
2019-06-15T04:11:29.645Z,79.60
2019-06-15T04:16:50.082Z,79.00
2019-06-15T04:21:56.881Z,78.84
2019-06-15T04:27:01.003Z,78.74
2019-06-15T04:32:05.046Z,78.06
2019-06-15T04:37:09.176Z,75.78
2019-06-15T04:42:13.264Z,74.90
2019-06-15T04:47:17.569Z,72.61
2019-06-15T04:52:24.502Z,72.32
2019-06-15T04:57:28.612Z,73.73
2019-06-15T05:02:32.720Z,73.39
2019-06-15T05:07:36.847Z,65.55
2019-06-15T05:12:41.128Z,60.09
2019-06-15T05:17:46.384Z,56.07
2019-06-15T05:22:50.694Z,54.91
2019-06-15T05:27:54.772Z,53.71
2019-06-15T05:32:58.788Z,50.82
2019-06-15T05:38:02.905Z,54.51
2019-06-15T05:43:06.937Z,58.17
2019-06-15T05:48:11.055Z,62.92
2019-06-15T05:53:15.142Z,65.43
2019-06-15T05:58:19.333Z,63.27
2019-06-15T06:03:23.566Z,54.92
2019-06-15T06:08:27.680Z,55.32
2019-06-15T06:13:31.761Z,48.29
2019-06-15T06:18:36.061Z,50.43
2019-06-15T06:23:40.086Z,54.81
2019-06-15T06:28:56.518Z,60.71
2019-06-15T06:33:50.117Z,60.05
2019-06-15T06:38:54.150Z,47.08
2019-06-15T06:43:58.178Z,48.48
2019-06-15T06:49:02.263Z,46.33
2019-06-15T06:54:06.738Z,49.63
2019-06-15T06:59:10.759Z,52.52
2019-06-15T07:04:14.808Z,56.97
2019-06-15T07:09:18.903Z,50.95
2019-06-15T07:14:23.101Z,52.29
2019-06-15T07:19:27.194Z,55.61
2019-06-15T07:24:31.228Z,57.39
2019-06-15T07:29:35.303Z,58.83
2019-06-15T07:34:39.414Z,59.82
2019-06-15T07:39:43.824Z,57.63
2019-06-15T07:44:47.848Z,48.86
2019-06-15T07:49:51.927Z,41.96
2019-06-15T07:54:55.962Z,41.95
2019-06-15T08:00:00.074Z,38.67
2019-06-15T08:05:09.843Z,36.58
2019-06-15T08:10:14.769Z,37.86
2019-06-15T08:15:19.141Z,39.25
2019-06-15T08:20:27.829Z,37.93
2019-06-15T08:25:31.966Z,37.02
2019-06-15T08:30:42.781Z,37.75
2019-06-15T08:35:46.890Z,38.30
2019-06-15T08:40:51.082Z,36.53
2019-06-15T08:45:55.532Z,37.23
2019-06-15T08:50:59.848Z,37.85
2019-06-15T08:56:09.586Z,36.95
2019-06-15T09:01:13.620Z,34.98
2019-06-15T09:06:17.972Z,37.00
2019-06-15T09:11:22.117Z,40.00
2019-06-15T09:16:26.117Z,37.06
2019-06-15T09:21:30.227Z,38.24
2019-06-15T09:26:34.337Z,36.09
2019-06-15T09:31:38.413Z,37.23
2019-06-15T09:36:42.967Z,41.08
2019-06-15T09:41:47.005Z,44.69
2019-06-15T09:46:51.706Z,45.67
2019-06-15T09:51:55.851Z,43.38
2019-06-15T09:56:59.906Z,42.57
2019-06-15T10:02:10.890Z,42.57
2019-06-15T10:07:14.991Z,40.87
2019-06-15T10:12:19.307Z,40.23
2019-06-15T10:17:23.363Z,44.97
2019-06-15T10:22:27.402Z,44.98
2019-06-15T10:27:31.524Z,45.46
2019-06-15T10:32:35.651Z,47.04
2019-06-15T10:37:39.806Z,44.98
2019-06-15T10:42:43.872Z,45.84
2019-06-15T10:47:47.913Z,42.79
2019-06-15T10:52:51.990Z,41.81
2019-06-15T10:57:56.076Z,42.65
2019-06-15T11:03:03.627Z,41.36
2019-06-15T11:08:10.564Z,41.40
2019-06-15T11:13:14.820Z,39.57
2019-06-15T11:18:19.120Z,39.50
2019-06-15T11:23:23.478Z,34.74
2019-06-15T11:28:27.608Z,35.88
2019-06-15T11:33:31.696Z,36.23
2019-06-15T11:38:35.740Z,34.81
2019-06-15T11:43:39.739Z,35.74
2019-06-15T11:48:43.845Z,37.95
2019-06-15T11:53:47.947Z,41.46
2019-06-15T11:58:52.004Z,41.94
2019-06-15T12:03:56.791Z,39.41
2019-06-15T12:09:00.924Z,38.93
2019-06-15T12:14:05.156Z,41.47
2019-06-15T12:19:09.447Z,38.14
2019-06-15T12:24:13.549Z,37.42
2019-06-15T12:29:17.920Z,38.10
2019-06-15T12:34:22.048Z,37.48
2019-06-15T12:39:26.142Z,38.19
2019-06-15T12:44:30.193Z,39.72
2019-06-15T12:49:34.195Z,40.06
2019-06-15T12:54:38.683Z,38.46
2019-06-15T12:59:42.804Z,38.46
2019-06-15T13:04:46.913Z,37.44
2019-06-15T13:09:50.938Z,36.03
2019-06-15T13:14:55.007Z,32.98
2019-06-15T13:19:59.114Z,34.35
2019-06-15T13:25:03.490Z,34.46
2019-06-15T13:30:09.998Z,35.57
2019-06-15T13:35:14.214Z,36.23
2019-06-15T13:40:18.606Z,36.04
2019-06-15T13:45:23.712Z,33.83
2019-06-15T13:50:27.837Z,33.29
2019-06-15T13:55:32.425Z,33.38
2019-06-15T14:00:36.511Z,33.85
2019-06-15T14:05:40.603Z,33.02
2019-06-15T14:10:44.732Z,34.23
2019-06-15T14:15:48.902Z,34.74
2019-06-15T14:20:52.955Z,35.55
2019-06-15T14:25:57.066Z,36.72
2019-06-15T14:31:02.390Z,36.14
2019-06-15T14:36:06.996Z,35.99
2019-06-15T14:41:11.246Z,37.57
2019-06-15T14:46:15.303Z,35.56
2019-06-15T14:51:19.450Z,34.85
2019-06-15T14:56:23.580Z,33.82
2019-06-15T15:01:27.705Z,36.37
2019-06-15T15:06:31.979Z,41.42
2019-06-15T15:11:36.789Z,44.09
2019-06-15T15:16:41.156Z,45.60
2019-06-15T15:21:46.144Z,45.02
2019-06-15T15:26:50.453Z,47.18
2019-06-15T15:31:57.394Z,44.22
2019-06-15T15:37:00.849Z,44.43
2019-06-15T15:42:06.591Z,44.94
2019-06-15T15:47:11.219Z,45.33
2019-06-15T15:52:17.088Z,44.01
2019-06-15T15:57:21.486Z,44.22
2019-06-15T16:02:35.531Z,43.94
2019-06-15T16:07:31.413Z,42.66
2019-06-15T16:12:36.139Z,44.18
2019-06-15T16:17:40.349Z,42.81
2019-06-15T16:22:45.927Z,44.01
2019-06-15T16:27:50.225Z,44.14
2019-06-15T16:33:03.129Z,43.98
2019-06-15T16:38:00.237Z,43.81
2019-06-15T16:43:06.931Z,43.44
2019-06-15T16:48:10.377Z,41.90
2019-06-15T16:53:16.890Z,43.40
2019-06-15T16:58:21.032Z,45.35
2019-06-15T17:03:29.018Z,45.06
2019-06-15T17:08:31.612Z,45.67
2019-06-15T17:13:37.152Z,45.97
2019-06-15T17:18:41.164Z,46.29
2019-06-15T17:23:46.752Z,47.15
2019-06-15T17:28:51.243Z,45.79
2019-06-15T17:33:56.350Z,46.61
2019-06-15T17:39:01.213Z,46.27
2019-06-15T17:44:06.118Z,46.64
2019-06-15T17:49:10.501Z,46.64
2019-06-15T17:54:16.868Z,46.89
2019-06-15T17:59:22.371Z,47.60
2019-06-15T18:04:26.571Z,48.14
2019-06-15T18:09:30.590Z,48.21
2019-06-15T18:14:36.780Z,49.24
2019-06-15T18:19:40.517Z,49.39
2019-06-15T18:24:46.691Z,50.12
2019-06-15T18:29:50.889Z,50.58
2019-06-15T18:34:56.096Z,50.91
2019-06-15T18:40:01.029Z,51.37
2019-06-15T18:45:06.852Z,51.29
2019-06-15T18:50:11.492Z,51.83
2019-06-15T18:55:15.516Z,52.80
2019-06-15T19:00:19.719Z,52.73
2019-06-15T19:05:26.365Z,53.44
2019-06-15T19:10:35.960Z,54.87
2019-06-15T19:15:40.177Z,55.48
2019-06-15T19:20:44.261Z,55.35
2019-06-15T19:25:48.698Z,56.84
2019-06-15T19:30:52.786Z,58.17
2019-06-15T19:35:57.439Z,58.72
2019-06-15T19:41:01.517Z,60.00
2019-06-15T19:46:06.730Z,60.78
2019-06-15T19:51:11.262Z,61.83
2019-06-15T19:56:17.407Z,62.83
2019-06-15T20:01:22.466Z,63.38
2019-06-15T20:06:27.358Z,63.44
2019-06-15T20:11:31.546Z,63.90
2019-06-15T20:16:36.204Z,64.74
2019-06-15T20:21:40.356Z,65.51
2019-06-15T20:26:44.403Z,66.00
2019-06-15T20:31:49.115Z,66.75
2019-06-15T20:36:54.929Z,66.51
2019-06-15T20:42:00.373Z,67.24
2019-06-15T20:47:06.563Z,67.68
2019-06-15T20:52:12.868Z,67.98
2019-06-15T20:57:18.071Z,67.12
2019-06-15T21:02:26.872Z,65.94
2019-06-15T21:07:31.501Z,66.72
2019-06-15T21:12:37.544Z,65.91
2019-06-15T21:17:41.682Z,66.39
2019-06-15T21:22:46.481Z,67.06
2019-06-15T21:27:51.041Z,67.20
2019-06-15T21:32:55.976Z,66.28
2019-06-15T21:38:00.199Z,67.58
2019-06-15T21:43:06.811Z,68.46
2019-06-15T21:48:10.109Z,68.71
2019-06-15T21:53:16.157Z,68.74
2019-06-15T21:58:19.907Z,69.23
2019-06-15T22:03:26.478Z,67.86
2019-06-15T22:08:33.294Z,67.57
2019-06-15T22:13:40.602Z,67.26
2019-06-15T22:18:47.517Z,66.49
2019-06-15T22:23:52.425Z,64.94
2019-06-15T22:28:57.187Z,66.34
2019-06-15T22:34:02.438Z,67.09
2019-06-15T22:39:07.191Z,65.71
2019-06-15T22:44:12.775Z,64.12
2019-06-15T22:49:17.103Z,64.58
2019-06-15T22:54:21.129Z,63.88
2019-06-15T22:59:26.039Z,64.22
2019-06-15T23:04:30.077Z,63.82
2019-06-15T23:09:36.069Z,64.55
2019-06-15T23:14:40.281Z,64.96
2019-06-15T23:19:46.121Z,65.31
2019-06-15T23:24:50.570Z,66.31
2019-06-15T23:29:56.878Z,67.07
2019-06-15T23:35:00.313Z,67.57
2019-06-15T23:40:07.434Z,68.63
2019-06-15T23:45:11.548Z,69.34
2019-06-15T23:50:16.947Z,69.49
2019-06-15T23:55:21.166Z,70.55
